Time,TemperatureF,DewpointF,PressureIn,WindDirection,WindDirectionDegrees,WindSpeedMPH,WindSpeedGustMPH,Humidity,HourlyPrecipIn,Conditions,Clouds,dailyrainin,SoftwareType,DateUTC
2013-07-31 00:00:00,67.2,64.5,30.02,ESE,122,0.0,0.0,91,0.00,,,0.00,Wunderground v.1.15,2013-07-31 05:00:00,
2013-07-31 00:10:00,67.1,64.4,30.02,ESE,117,1.0,1.0,91,0.00,,,0.00,Wunderground v.1.15,2013-07-31 05:10:00,
2013-07-31 00:20:00,67.1,64.4,30.03,ESE,109,0.0,1.0,91,0.00,,,0.00,Wunderground v.1.15,2013-07-31 05:20:00,
2013-07-31 00:30:00,67.1,64.1,30.03,ESE,117,0.0,0.0,90,0.00,,,0.00,Wunderground v.1.15,2013-07-31 05:30:00,
2013-07-31 00:35:00,66.9,63.9,30.03,ESE,117,0.0,3.0,90,0.00,,,0.00,Wunderground v.1.15,2013-07-31 05:35:00,
2013-07-31 00:45:00,66.5,63.8,30.03,ENE,65,0.0,3.0,91,0.00,,,0.00,Wunderground v.1.15,2013-07-31 05:45:00,
2013-07-31 00:55:00,66.2,63.5,30.03,ENE,72,0.0,3.0,91,0.00,,,0.00,Wunderground v.1.15,2013-07-31 05:55:00,
2013-07-31 01:05:00,65.9,63.2,30.04,ENE,69,0.0,3.0,91,0.00,,,0.00,Wunderground v.1.15,2013-07-31 06:05:00,
2013-07-31 01:14:00,65.8,63.1,30.05,NNE,33,0.0,3.0,91,0.00,,,0.00,Wunderground v.1.15,2013-07-31 06:14:00,
2013-07-31 01:20:00,65.7,63.3,30.05,NNE,32,0.0,3.0,92,0.00,,,0.00,Wunderground v.1.15,2013-07-31 06:20:00,
2013-07-31 01:30:00,65.5,63.1,30.06,WSW,248,0.0,3.0,92,0.00,,,0.00,Wunderground v.1.15,2013-07-31 06:30:00,
2013-07-31 01:35:00,65.5,63.1,30.06,WSW,248,0.0,3.0,92,0.00,,,0.00,Wunderground v.1.15,2013-07-31 06:35:00,
2013-07-31 01:45:00,65.5,63.4,30.07,West,277,0.0,3.0,93,0.00,,,0.00,Wunderground v.1.15,2013-07-31 06:45:00,
2013-07-31 01:55:00,65.5,63.4,30.08,West,281,0.0,3.0,93,0.00,,,0.00,Wunderground v.1.15,2013-07-31 06:55:00,
2013-07-31 02:05:00,65.3,63.2,30.09,West,271,0.0,3.0,93,0.00,,,0.00,Wunderground v.1.15,2013-07-31 07:05:00,
2013-07-31 02:14:00,65.4,63.3,30.09,North,350,0.0,3.0,93,0.00,,,0.00,Wunderground v.1.15,2013-07-31 07:14:00,
2013-07-31 02:20:00,65.5,63.4,30.10,WNW,283,0.0,3.0,93,0.00,,,0.00,Wunderground v.1.15,2013-07-31 07:20:00,
2013-07-31 02:30:00,65.5,63.4,30.08,North,8,0.0,3.0,93,0.00,,,0.00,Wunderground v.1.15,2013-07-31 07:30:00,
2013-07-31 02:35:00,65.6,63.5,30.07,ESE,113,0.0,3.0,93,0.00,,,0.00,Wunderground v.1.15,2013-07-31 07:35:00,
2013-07-31 02:45:00,65.5,63.4,30.05,ESE,113,0.0,3.0,93,0.00,,,0.00,Wunderground v.1.15,2013-07-31 07:45:00,
2013-07-31 02:55:00,65.6,63.5,30.06,SSW,210,0.0,3.0,93,0.00,,,0.00,Wunderground v.1.15,2013-07-31 07:55:00,
2013-07-31 03:05:00,65.6,63.5,30.04,ESE,113,0.0,3.0,93,0.00,,,0.00,Wunderground v.1.15,2013-07-31 08:05:00,
2013-07-31 03:15:00,65.4,63.3,30.03,SE,145,0.0,3.0,93,0.00,,,0.00,Wunderground v.1.15,2013-07-31 08:15:00,
2013-07-31 03:25:00,65.3,63.2,30.01,SE,145,1.0,3.0,93,0.00,,,0.00,Wunderground v.1.15,2013-07-31 08:25:00,
2013-07-31 03:35:00,65.4,63.3,29.99,SE,129,1.0,3.0,93,0.00,,,0.00,Wunderground v.1.15,2013-07-31 08:35:00,
2013-07-31 03:44:00,65.4,63.3,30.02,SW,236,1.0,3.0,93,0.00,,,0.00,Wunderground v.1.15,2013-07-31 08:44:00,
2013-07-31 03:50:00,65.4,63.3,30.04,SW,236,1.0,1.0,93,0.00,,,0.00,Wunderground v.1.15,2013-07-31 08:50:00,
2013-07-31 03:55:00,65.4,63.3,30.04,WSW,238,0.0,3.0,93,0.00,,,0.00,Wunderground v.1.15,2013-07-31 08:55:00,
2013-07-31 04:05:00,65.2,63.1,30.04,WSW,238,0.0,3.0,93,0.00,,,0.00,Wunderground v.1.15,2013-07-31 09:05:00,
2013-07-31 04:15:00,65.1,63.0,30.04,South,191,0.0,3.0,93,0.00,,,0.00,Wunderground v.1.15,2013-07-31 09:15:00,
2013-07-31 04:25:00,64.9,63.1,30.05,SW,217,0.0,3.0,94,0.00,,,0.00,Wunderground v.1.15,2013-07-31 09:25:00,
2013-07-31 04:35:00,64.7,62.9,30.05,SW,217,0.0,3.0,94,0.00,,,0.00,Wunderground v.1.15,2013-07-31 09:35:00,
2013-07-31 04:44:00,64.4,62.6,30.05,SW,217,0.0,3.0,94,0.00,,,0.00,Wunderground v.1.15,2013-07-31 09:44:00,
2013-07-31 04:50:00,64.2,62.4,30.05,SW,217,0.0,3.0,94,0.00,,,0.00,Wunderground v.1.15,2013-07-31 09:50:00,
2013-07-31 04:55:00,64.1,62.3,30.06,WNW,283,0.0,3.0,94,0.00,,,0.00,Wunderground v.1.15,2013-07-31 09:55:00,
2013-07-31 05:05:00,63.9,62.1,30.06,WNW,283,0.0,3.0,94,0.00,,,0.00,Wunderground v.1.15,2013-07-31 10:05:00,
2013-07-31 05:15:00,63.5,61.7,30.06,WNW,283,0.0,3.0,94,0.00,,,0.00,Wunderground v.1.15,2013-07-31 10:15:00,
2013-07-31 05:25:00,63.2,61.7,30.06,WNW,283,0.0,3.0,95,0.00,,,0.00,Wunderground v.1.15,2013-07-31 10:25:00,
2013-07-31 05:35:00,63.0,61.5,30.07,WNW,283,0.0,3.0,95,0.00,,,0.00,Wunderground v.1.15,2013-07-31 10:35:00,
2013-07-31 05:44:00,62.9,61.4,30.06,WNW,283,0.0,3.0,95,0.00,,,0.00,Wunderground v.1.15,2013-07-31 10:44:00,
2013-07-31 05:55:00,62.9,61.4,30.06,WNW,289,0.0,3.0,95,0.00,,,0.00,Wunderground v.1.15,2013-07-31 10:55:00,
2013-07-31 06:00:00,62.9,61.4,30.07,WNW,290,0.0,0.0,95,0.00,,,0.00,Wunderground v.1.15,2013-07-31 11:00:00,
2013-07-31 06:10:00,62.9,61.7,30.07,West,281,0.0,0.0,96,0.00,,,0.00,Wunderground v.1.15,2013-07-31 11:10:00,
2013-07-31 06:15:00,62.9,61.7,30.07,West,281,0.0,0.0,96,0.00,,,0.00,Wunderground v.1.15,2013-07-31 11:15:00,
2013-07-31 06:25:00,62.8,61.6,30.08,West,281,0.0,0.0,96,0.00,,,0.00,Wunderground v.1.15,2013-07-31 11:25:00,
2013-07-31 06:35:00,62.6,61.4,30.07,West,281,0.0,0.0,96,0.00,,,0.00,Wunderground v.1.15,2013-07-31 11:35:00,
2013-07-31 06:45:00,62.8,61.6,30.07,West,281,0.0,0.0,96,0.00,,,0.00,Wunderground v.1.15,2013-07-31 11:45:00,
2013-07-31 06:54:00,63.0,61.8,30.07,West,281,0.0,0.0,96,0.00,,,0.00,Wunderground v.1.15,2013-07-31 11:54:00,
2013-07-31 07:00:00,62.9,61.7,30.07,West,281,0.0,0.0,96,0.00,,,0.00,Wunderground v.1.15,2013-07-31 12:00:00,
2013-07-31 07:05:00,62.7,61.5,30.08,West,281,0.0,1.0,96,0.00,,,0.00,Wunderground v.1.15,2013-07-31 12:05:00,
2013-07-31 07:15:00,62.4,61.2,30.08,West,279,0.0,1.0,96,0.00,,,0.00,Wunderground v.1.15,2013-07-31 12:15:00,
2013-07-31 07:25:00,62.2,61.0,30.08,West,269,0.0,1.0,96,0.00,,,0.00,Wunderground v.1.15,2013-07-31 12:25:00,
2013-07-31 07:35:00,62.5,61.3,30.08,West,271,0.0,1.0,96,0.00,,,0.00,Wunderground v.1.15,2013-07-31 12:35:00,
2013-07-31 07:45:00,62.8,61.6,30.08,West,271,0.0,1.0,96,0.00,,,0.00,Wunderground v.1.15,2013-07-31 12:45:00,
2013-07-31 07:54:00,62.9,61.7,30.08,WNW,288,0.0,1.0,96,0.00,,,0.00,Wunderground v.1.15,2013-07-31 12:54:00,
2013-07-31 08:00:00,63.1,61.9,30.08,WNW,283,0.0,1.0,96,0.00,,,0.00,Wunderground v.1.15,2013-07-31 13:00:00,
2013-07-31 08:05:00,63.2,62.0,30.08,WNW,284,0.0,1.0,96,0.00,,,0.00,Wunderground v.1.15,2013-07-31 13:05:00,
2013-07-31 08:15:00,63.4,62.2,30.08,SW,224,0.0,1.0,96,0.00,,,0.00,Wunderground v.1.15,2013-07-31 13:15:00,
2013-07-31 08:25:00,63.6,62.4,30.07,SW,224,0.0,1.0,96,0.00,,,0.00,Wunderground v.1.15,2013-07-31 13:25:00,
2013-07-31 08:35:00,64.0,62.8,30.08,WSW,246,0.0,1.0,96,0.00,,,0.00,Wunderground v.1.15,2013-07-31 13:35:00,
2013-07-31 08:45:00,64.4,63.2,30.08,West,265,0.0,1.0,96,0.00,,,0.00,Wunderground v.1.15,2013-07-31 13:45:00,
2013-07-31 08:54:00,64.9,63.4,30.09,WNW,290,0.0,1.0,95,0.00,,,0.00,Wunderground v.1.15,2013-07-31 13:54:00,
2013-07-31 09:00:00,65.1,63.3,30.09,WNW,290,0.0,1.0,94,0.00,,,0.00,Wunderground v.1.15,2013-07-31 14:00:00,
2013-07-31 09:05:00,65.2,63.4,30.09,West,278,0.0,1.0,94,0.00,,,0.00,Wunderground v.1.15,2013-07-31 14:05:00,
2013-07-31 09:15:00,65.9,64.1,30.09,West,278,0.0,1.0,94,0.00,,,0.00,Wunderground v.1.15,2013-07-31 14:15:00,
2013-07-31 09:25:00,67.3,64.6,30.09,WSW,256,0.0,2.0,91,0.00,,,0.00,Wunderground v.1.15,2013-07-31 14:25:00,
2013-07-31 09:35:00,68.4,65.0,30.09,WNW,285,0.0,1.0,89,0.00,,,0.00,Wunderground v.1.15,2013-07-31 14:35:00,
2013-07-31 09:45:00,69.5,65.1,30.09,WNW,295,0.0,1.0,86,0.00,,,0.00,Wunderground v.1.15,2013-07-31 14:45:00,
2013-07-31 09:55:00,70.2,64.8,30.09,WNW,300,1.0,1.0,83,0.00,,,0.00,Wunderground v.1.15,2013-07-31 14:55:00,
2013-07-31 10:05:00,71.4,65.3,30.09,NW,307,0.0,1.0,81,0.00,,,0.00,Wunderground v.1.15,2013-07-31 15:05:00,
2013-07-31 10:15:00,72.6,66.1,30.09,NW,304,0.0,1.0,80,0.00,,,0.00,Wunderground v.1.15,2013-07-31 15:15:00,
2013-07-31 10:25:00,73.5,66.2,30.09,WNW,287,0.0,2.0,78,0.00,,,0.00,Wunderground v.1.15,2013-07-31 15:25:00,
2013-07-31 10:34:00,74.5,66.4,30.09,NE,37,0.0,1.0,76,0.00,,,0.00,Wunderground v.1.15,2013-07-31 15:34:00,
2013-07-31 10:44:00,75.3,66.4,30.09,WNW,297,1.0,2.0,74,0.00,,,0.00,Wunderground v.1.15,2013-07-31 15:44:00,
2013-07-31 10:50:00,75.6,66.3,30.09,WNW,298,1.0,1.0,73,0.00,,,0.00,Wunderground v.1.15,2013-07-31 15:50:00,
2013-07-31 11:00:00,76.3,66.2,30.09,West,281,1.0,1.0,71,0.00,,,0.00,Wunderground v.1.15,2013-07-31 16:00:00,
2013-07-31 11:10:00,77.4,66.8,30.09,NW,314,1.0,1.0,70,0.00,,,0.00,Wunderground v.1.15,2013-07-31 16:10:00,
2013-07-31 11:15:00,77.8,67.6,30.09,WNW,292,1.0,1.0,71,0.00,,,0.00,Wunderground v.1.15,2013-07-31 16:15:00,
2013-07-31 11:25:00,77.1,68.2,30.09,NNE,18,0.0,1.0,74,0.00,,,0.00,Wunderground v.1.15,2013-07-31 16:25:00,
2013-07-31 11:34:00,76.4,67.1,30.09,North,359,1.0,1.0,73,0.00,,,0.00,Wunderground v.1.15,2013-07-31 16:34:00,
2013-07-31 11:44:00,76.0,66.7,30.09,NE,40,1.0,1.0,73,0.00,,,0.00,Wunderground v.1.15,2013-07-31 16:44:00,
2013-07-31 11:50:00,75.9,66.6,30.09,NW,304,1.0,1.0,73,0.00,,,0.00,Wunderground v.1.15,2013-07-31 16:50:00,
2013-07-31 12:00:00,76.4,66.7,30.09,WNW,300,0.0,0.0,72,0.00,,,0.00,Wunderground v.1.15,2013-07-31 17:00:00,
2013-07-31 12:10:00,76.6,67.7,30.09,WNW,302,0.0,0.0,74,0.00,,,0.00,Wunderground v.1.15,2013-07-31 17:10:00,
2013-07-31 12:15:00,76.8,66.7,30.09,WNW,300,0.0,1.0,71,0.00,,,0.00,Wunderground v.1.15,2013-07-31 17:15:00,
2013-07-31 12:25:00,76.7,67.0,30.09,NW,304,1.0,1.0,72,0.00,,,0.00,Wunderground v.1.15,2013-07-31 17:25:00,
2013-07-31 12:35:00,77.0,66.9,30.09,West,269,0.0,1.0,71,0.00,,,0.00,Wunderground v.1.15,2013-07-31 17:35:00,
2013-07-31 12:45:00,78.1,67.9,30.09,WNW,298,0.0,1.0,71,0.00,,,0.00,Wunderground v.1.15,2013-07-31 17:45:00,
2013-07-31 12:54:00,78.3,66.4,30.09,WNW,302,0.0,1.0,67,0.00,,,0.00,Wunderground v.1.15,2013-07-31 17:54:00,
2013-07-31 13:00:00,78.1,66.7,30.09,WNW,300,1.0,1.0,68,0.00,,,0.00,Wunderground v.1.15,2013-07-31 18:00:00,
2013-07-31 13:10:00,79.1,67.2,30.08,East,88,1.0,1.0,67,0.00,,,0.00,Wunderground v.1.15,2013-07-31 18:10:00,
2013-07-31 13:15:00,79.4,67.5,30.08,ENE,63,1.0,6.0,67,0.00,,,0.00,Wunderground v.1.15,2013-07-31 18:15:00,
2013-07-31 13:25:00,79.1,66.3,30.08,NW,314,1.0,6.0,65,0.00,,,0.00,Wunderground v.1.15,2013-07-31 18:25:00,
2013-07-31 13:35:00,79.5,66.7,30.08,WNW,295,1.0,6.0,65,0.00,,,0.00,Wunderground v.1.15,2013-07-31 18:35:00,
2013-07-31 13:45:00,80.0,65.8,30.08,NE,45,0.0,6.0,62,0.00,,,0.00,Wunderground v.1.15,2013-07-31 18:45:00,
2013-07-31 13:55:00,80.7,66.9,30.08,East,84,1.0,6.0,63,0.00,,,0.00,Wunderground v.1.15,2013-07-31 18:55:00,
2013-07-31 14:05:00,80.8,66.1,30.07,SSE,167,1.0,6.0,61,0.00,,,0.00,Wunderground v.1.15,2013-07-31 19:05:00,
2013-07-31 14:14:00,81.3,66.1,30.07,NW,307,1.0,2.0,60,0.00,,,0.00,Wunderground v.1.15,2013-07-31 19:14:00,
2013-07-31 14:20:00,81.0,65.8,30.07,WNW,286,1.0,1.0,60,0.00,,,0.00,Wunderground v.1.15,2013-07-31 19:20:00,
2013-07-31 14:25:00,81.2,66.0,30.07,NW,324,1.0,6.0,60,0.00,,,0.00,Wunderground v.1.15,2013-07-31 19:25:00,
2013-07-31 14:35:00,82.2,66.0,30.07,WNW,297,0.0,6.0,58,0.00,,,0.00,Wunderground v.1.15,2013-07-31 19:35:00,
2013-07-31 14:45:00,82.0,65.8,30.07,East,86,1.0,6.0,58,0.00,,,0.00,Wunderground v.1.15,2013-07-31 19:45:00,
2013-07-31 14:55:00,81.5,65.3,30.07,East,84,0.0,6.0,58,0.00,,,0.00,Wunderground v.1.15,2013-07-31 19:55:00,
2013-07-31 15:05:00,81.7,66.9,30.06,ENE,78,0.0,6.0,61,0.00,,,0.00,Wunderground v.1.15,2013-07-31 20:05:00,
2013-07-31 15:14:00,81.8,66.6,30.06,West,281,0.0,6.0,60,0.00,,,0.00,Wunderground v.1.15,2013-07-31 20:14:00,
2013-07-31 15:20:00,82.0,66.3,30.06,SE,133,0.0,6.0,59,0.00,,,0.00,Wunderground v.1.15,2013-07-31 20:20:00,
2013-07-31 15:25:00,82.1,66.8,30.06,NW,316,0.0,6.0,60,0.00,,,0.00,Wunderground v.1.15,2013-07-31 20:25:00,
2013-07-31 15:35:00,82.1,64.8,30.06,NNE,22,0.0,6.0,56,0.00,,,0.00,Wunderground v.1.15,2013-07-31 20:35:00,
2013-07-31 15:45:00,81.6,65.4,30.05,WNW,288,0.0,6.0,58,0.00,,,0.00,Wunderground v.1.15,2013-07-31 20:45:00,
2013-07-31 15:55:00,82.1,66.4,30.05,SW,217,0.0,6.0,59,0.00,,,0.00,Wunderground v.1.15,2013-07-31 20:55:00,
2013-07-31 16:05:00,83.4,65.5,30.05,NW,308,0.0,6.0,55,0.00,,,0.00,Wunderground v.1.15,2013-07-31 21:05:00,
2013-07-31 16:15:00,83.3,65.4,30.05,East,86,0.0,6.0,55,0.00,,,0.00,Wunderground v.1.15,2013-07-31 21:15:00,
2013-07-31 16:20:00,83.2,66.4,30.05,ENE,77,0.0,6.0,57,0.00,,,0.00,Wunderground v.1.15,2013-07-31 21:20:00,
2013-07-31 16:25:00,83.5,65.1,30.05,NNE,18,0.0,6.0,54,0.00,,,0.00,Wunderground v.1.15,2013-07-31 21:25:00,
2013-07-31 16:35:00,83.8,65.9,30.04,NW,304,0.0,6.0,55,0.00,,,0.00,Wunderground v.1.15,2013-07-31 21:35:00,
2013-07-31 16:45:00,83.8,64.8,30.04,NW,322,0.0,6.0,53,0.00,,,0.00,Wunderground v.1.15,2013-07-31 21:45:00,
2013-07-31 16:55:00,84.1,64.6,30.04,North,6,0.0,6.0,52,0.00,,,0.00,Wunderground v.1.15,2013-07-31 21:55:00,
2013-07-31 17:05:00,83.6,65.2,30.03,NW,315,0.0,6.0,54,0.00,,,0.00,Wunderground v.1.15,2013-07-31 22:05:00,
2013-07-31 17:15:00,84.3,64.8,30.03,East,93,0.0,6.0,52,0.00,,,0.00,Wunderground v.1.15,2013-07-31 22:15:00,
2013-07-31 17:20:00,84.4,65.4,30.02,East,79,0.0,6.0,53,0.00,,,0.00,Wunderground v.1.15,2013-07-31 22:20:00,
2013-07-31 17:25:00,84.3,64.8,30.02,North,4,0.0,6.0,52,0.00,,,0.00,Wunderground v.1.15,2013-07-31 22:25:00,
2013-07-31 17:35:00,83.3,64.4,30.02,ENE,77,0.0,6.0,53,0.00,,,0.00,Wunderground v.1.15,2013-07-31 22:35:00,
2013-07-31 17:45:00,83.2,64.3,30.02,NNE,18,0.0,6.0,53,0.00,,,0.00,Wunderground v.1.15,2013-07-31 22:45:00,
2013-07-31 17:55:00,82.5,64.7,30.02,East,94,0.0,6.0,55,0.00,,,0.00,Wunderground v.1.15,2013-07-31 22:55:00,
2013-07-31 18:00:00,82.0,63.7,30.02,WSW,255,0.0,0.0,54,0.00,,,0.00,Wunderground v.1.15,2013-07-31 23:00:00,
2013-07-31 18:09:00,81.4,63.7,30.02,WNW,288,0.0,0.0,55,0.00,,,0.00,Wunderground v.1.15,2013-07-31 23:09:00,
2013-07-31 18:15:00,80.9,64.2,30.01,East,94,0.0,1.0,57,0.00,,,0.00,Wunderground v.1.15,2013-07-31 23:15:00,
2013-07-31 18:24:00,80.8,64.6,30.01,ENE,77,0.0,1.0,58,0.00,,,0.00,Wunderground v.1.15,2013-07-31 23:24:00,
2013-07-31 18:30:00,80.7,64.5,30.01,WNW,293,0.0,0.0,58,0.00,,,0.00,Wunderground v.1.15,2013-07-31 23:30:00,
2013-07-31 18:35:00,80.7,64.5,30.01,ENE,72,0.0,2.0,58,0.00,,,0.00,Wunderground v.1.15,2013-07-31 23:35:00,
2013-07-31 18:45:00,80.3,64.7,30.01,ENE,65,0.0,2.0,59,0.00,,,0.00,Wunderground v.1.15,2013-07-31 23:45:00,
2013-07-31 18:55:00,80.0,64.4,30.00,NE,40,1.0,2.0,59,0.00,,,0.00,Wunderground v.1.15,2013-07-31 23:55:00,
2013-07-31 19:05:00,79.8,63.7,30.01,East,98,0.0,2.0,58,0.00,,,0.00,Wunderground v.1.15,2013-08-01 00:05:00,
2013-07-31 19:15:00,79.6,64.5,30.01,North,6,0.0,2.0,60,0.00,,,0.00,Wunderground v.1.15,2013-08-01 00:15:00,
2013-07-31 19:24:00,79.3,64.2,30.01,ENE,72,0.0,2.0,60,0.00,,,0.00,Wunderground v.1.15,2013-08-01 00:24:00,
2013-07-31 19:30:00,79.0,63.4,30.01,ENE,78,0.0,2.0,59,0.00,,,0.00,Wunderground v.1.15,2013-08-01 00:30:00,
2013-07-31 19:35:00,78.8,63.7,30.01,NNE,30,0.0,2.0,60,0.00,,,0.00,Wunderground v.1.15,2013-08-01 00:35:00,
2013-07-31 19:45:00,78.2,64.6,30.02,ENE,63,0.0,2.0,63,0.00,,,0.00,Wunderground v.1.15,2013-08-01 00:45:00,
2013-07-31 19:55:00,77.4,64.7,30.02,NE,53,0.0,2.0,65,0.00,,,0.00,Wunderground v.1.15,2013-08-01 00:55:00,
2013-07-31 20:05:00,76.9,65.1,30.02,East,84,0.0,2.0,67,0.00,,,0.00,Wunderground v.1.15,2013-08-01 01:05:00,
2013-07-31 20:15:00,76.4,64.6,30.02,East,91,0.0,2.0,67,0.00,,,0.00,Wunderground v.1.15,2013-08-01 01:15:00,
2013-07-31 20:25:00,75.8,64.9,30.02,East,90,0.0,2.0,69,0.00,,,0.00,Wunderground v.1.15,2013-08-01 01:25:00,
2013-07-31 20:30:00,75.4,64.9,30.02,East,91,0.0,2.0,70,0.00,,,0.00,Wunderground v.1.15,2013-08-01 01:30:00,
2013-07-31 20:40:00,74.7,65.1,30.02,East,91,0.0,2.0,72,0.00,,,0.00,Wunderground v.1.15,2013-08-01 01:40:00,
2013-07-31 20:45:00,74.2,64.6,30.02,East,91,0.0,2.0,72,0.00,,,0.00,Wunderground v.1.15,2013-08-01 01:45:00,
2013-07-31 20:55:00,73.5,64.7,30.02,East,91,0.0,2.0,74,0.00,,,0.00,Wunderground v.1.15,2013-08-01 01:55:00,
2013-07-31 21:05:00,72.7,64.7,30.03,East,91,0.0,2.0,76,0.00,,,0.00,Wunderground v.1.15,2013-08-01 02:05:00,
2013-07-31 21:15:00,72.0,64.4,30.03,East,91,0.0,2.0,77,0.00,,,0.00,Wunderground v.1.15,2013-08-01 02:15:00,
2013-07-31 21:25:00,71.5,64.6,30.03,East,91,0.0,2.0,79,0.00,,,0.00,Wunderground v.1.15,2013-08-01 02:25:00,
2013-07-31 21:30:00,71.2,64.4,30.03,East,90,0.0,2.0,79,0.00,,,0.00,Wunderground v.1.15,2013-08-01 02:30:00,
2013-07-31 21:40:00,70.5,63.7,30.04,East,90,0.0,2.0,79,0.00,,,0.00,Wunderground v.1.15,2013-08-01 02:40:00,
2013-07-31 21:45:00,70.3,63.8,30.04,East,90,0.0,2.0,80,0.00,,,0.00,Wunderground v.1.15,2013-08-01 02:45:00,
2013-07-31 21:55:00,70.2,63.7,30.04,East,91,0.0,2.0,80,0.00,,,0.00,Wunderground v.1.15,2013-08-01 02:55:00,
2013-07-31 22:05:00,69.9,63.8,30.05,East,94,0.0,2.0,81,0.00,,,0.00,Wunderground v.1.15,2013-08-01 03:05:00,
2013-07-31 22:15:00,69.4,63.3,30.05,East,94,0.0,2.0,81,0.00,,,0.00,Wunderground v.1.15,2013-08-01 03:15:00,
2013-07-31 22:25:00,68.9,63.2,30.06,East,94,0.0,2.0,82,0.00,,,0.00,Wunderground v.1.15,2013-08-01 03:25:00,
2013-07-31 22:34:00,68.5,63.1,30.06,East,93,0.0,2.0,83,0.00,,,0.00,Wunderground v.1.15,2013-08-01 03:34:00,
2013-07-31 22:40:00,68.3,62.9,30.06,East,94,0.0,2.0,83,0.00,,,0.00,Wunderground v.1.15,2013-08-01 03:40:00,
2013-07-31 22:50:00,67.5,62.5,30.06,East,93,0.0,2.0,84,0.00,,,0.00,Wunderground v.1.15,2013-08-01 03:50:00,
2013-07-31 22:55:00,67.3,62.6,30.06,East,94,0.0,2.0,85,0.00,,,0.00,Wunderground v.1.15,2013-08-01 03:55:00,
2013-07-31 23:05:00,67.0,62.3,30.05,East,93,0.0,2.0,85,0.00,,,0.00,Wunderground v.1.15,2013-08-01 04:05:00,
2013-07-31 23:10:00,66.8,62.1,30.06,East,94,0.0,2.0,85,0.00,,,0.00,Wunderground v.1.15,2013-08-01 04:10:00,
2013-07-31 23:15:00,66.6,61.9,30.06,East,94,0.0,2.0,85,0.00,,,0.00,Wunderground v.1.15,2013-08-01 04:15:00,
2013-07-31 23:20:00,66.5,61.8,30.06,East,94,0.0,2.0,85,0.00,,,0.00,Wunderground v.1.15,2013-08-01 04:20:00,
2013-07-31 23:25:00,66.5,61.8,30.05,East,94,0.0,2.0,85,0.00,,,0.00,Wunderground v.1.15,2013-08-01 04:25:00,
2013-07-31 23:34:00,66.2,61.6,30.06,East,93,0.0,2.0,85,0.00,,,0.00,Wunderground v.1.15,2013-08-01 04:34:00,
2013-07-31 23:40:00,66.0,61.7,30.06,East,93,0.0,2.0,86,0.00,,,0.00,Wunderground v.1.15,2013-08-01 04:40:00,
2013-07-31 23:44:00,66.0,62.0,30.06,East,93,0.0,2.0,87,0.00,,,0.00,Wunderground v.1.15,2013-08-01 04:44:00,
2013-07-31 23:50:00,66.0,61.7,30.06,East,94,0.0,2.0,86,0.00,,,0.00,Wunderground v.1.15,2013-08-01 04:50:00,